Jupiter, FL (33458)

9:57 AM EDT on September 03, 2015 (GMT -0400)
JUPITER RIVER | | Change Station
CLOSE
Current Station
Personal Weather Station
Location: Jupiter, FL
Elevation: 14 ft
Nearby Weather Stations

Elev 14 ft 26.93 °N, 80.11 °W | Updated 26 minutes ago

Partly Cloudy
Partly Cloudy
88.3 °F
Feels Like 106 °F
N
0.0
Wind Variable Wind from SSW
Gusts 2.0 mph

Today
High -- | Low -- °F
--% Chance of Precip.
Yesterday
High -- | Low -- °F
Precip. -- in
7:00 AM 7:38 PM
Waning Gibbous, 70% visible
Pressure 30.01 in
Visibility 10.0 miles
Clouds Few 2600 ft
Mostly Cloudy 25000 ft
Heat Index 106 °F
Dew Point 81 °F
Humidity 78%
Rainfall 0.00 in
Snow Depth Not available.
UV 0.0 out of 12
Pollen 4.70 out of 12
Air Quality Not available.
Flu Activity Not available.
METAR KPBI 031353Z 25006KT 10SM FEW026 BKN250 29/24 A3001 RMK AO2 SLP161 TCU DSNT E SE T02940239 $
Pressure 30.01 in
Visibility 10.0 miles
Clouds Few 2600 ft
Mostly Cloudy 25000 ft
Heat Index 106 °F
Dew Point 81 °F
Humidity 78%
Rainfall 0.00 in
Snow Depth Not available.
UV 0.0 out of 12
Pollen 4.70 out of 12
Air Quality Not available.
Flu Activity Not available.
METAR KPBI 031353Z 25006KT 10SM FEW026 BKN250 29/24 A3001 RMK AO2 SLP161 TCU DSNT E SE T02940239 $

10-Day Weather Forecast

×

Almanac

Astronomy

Sep. 03, 2015 Rise Set
Actual Time
Civil Twilight
Nautical Twilight
Astronomical Twilight
Moon
Length of Visible Light
Length of Day
Tomorrow will be .
, % of the Moon is Illuminated

Today's Extremes

State Highs State Lows

Community

WunderPhotos

Upload Photos

1,851,952 photos uploaded!

WunderBlogs® & News

Nearby

Air Quality

  Air Quality AQ Index Pollutant
Not available.

Snow Depth

Station Depth Elevation

Earthquake Activity

City Distance Mag. Time & Date
Minimum magnitude displayed is 2.5.

Coastal Water Temperatures

Place Temperature

Stations

Nearby Weather Stations

Station Location Temp. Windchill Dew Point Humidity Wind Precip. Elev Updated Type